createdAt,value
2022-11-24T09:01:21.843Z,16.23
2022-11-24T09:03:24.504Z,19.10
2022-11-24T09:05:51.294Z,17.98
2022-11-24T09:07:49.067Z,17.23
2022-11-24T09:09:51.603Z,18.17
2022-11-24T09:11:54.022Z,16.87
2022-11-24T09:13:56.369Z,16.62
2022-11-24T09:16:08.109Z,19.45
2022-11-24T09:18:10.414Z,19.48
2022-11-24T09:22:32.967Z,17.62
2022-11-24T09:24:35.270Z,17.58
2022-11-24T09:26:43.012Z,17.17
2022-11-24T09:28:48.991Z,18.00
2022-11-24T09:30:51.232Z,16.77
2022-11-24T09:32:55.886Z,15.85
2022-11-24T09:34:58.438Z,16.12
2022-11-24T09:37:01.365Z,15.27
2022-11-24T09:39:04.266Z,15.82
2022-11-24T09:41:34.394Z,18.98
2022-11-24T09:43:46.256Z,16.15
2022-11-24T09:46:07.665Z,14.93
2022-11-24T09:48:15.909Z,16.15
2022-11-24T09:50:28.183Z,17.10
2022-11-24T09:52:39.086Z,16.55
2022-11-24T09:54:57.537Z,16.37
2022-11-24T09:57:01.570Z,17.12
2022-11-24T09:59:15.022Z,17.98
2022-11-24T10:01:20.745Z,15.02
2022-11-24T10:03:29.636Z,15.82
2022-11-24T10:05:36.008Z,14.48
2022-11-24T10:07:48.007Z,16.27
2022-11-24T10:10:08.420Z,24.15
2022-11-24T10:12:22.980Z,16.58
2022-11-24T10:15:03.941Z,15.77
2022-11-24T10:17:12.503Z,16.02
2022-11-24T10:19:44.140Z,17.10
2022-11-24T10:21:49.497Z,14.48
2022-11-24T10:24:23.141Z,15.15
2022-11-24T10:26:25.283Z,17.05
2022-11-24T10:28:37.763Z,15.02
2022-11-24T10:30:40.512Z,13.93
2022-11-24T10:33:08.404Z,15.10
2022-11-24T10:35:15.763Z,16.40
2022-11-24T10:37:40.758Z,15.57
2022-11-24T10:42:53.783Z,14.30
2022-11-24T10:45:17.636Z,15.43
2022-11-24T10:47:22.840Z,13.82
2022-11-24T10:49:30.112Z,15.63
2022-11-24T10:52:16.129Z,15.30
2022-11-24T10:54:22.037Z,16.08
2022-11-24T10:56:24.636Z,15.32
2022-11-24T10:58:37.919Z,16.05
2022-11-24T11:00:40.400Z,20.08
2022-11-24T11:02:42.962Z,15.10
2022-11-24T11:04:45.229Z,15.63
2022-11-24T11:06:47.598Z,16.35
2022-11-24T11:09:10.510Z,14.20
2022-11-24T11:11:28.526Z,14.90
2022-11-24T11:13:32.354Z,14.77
2022-11-24T11:15:35.620Z,13.80
2022-11-24T11:17:39.247Z,13.30
2022-11-24T11:19:54.184Z,14.02
2022-11-24T11:22:04.805Z,12.98
2022-11-24T11:24:16.934Z,14.20
2022-11-24T11:26:25.269Z,14.23
2022-11-24T11:28:29.533Z,12.35
2022-11-24T11:35:24.150Z,12.43
2022-11-24T11:37:30.748Z,11.80
2022-11-24T11:39:37.877Z,13.18
2022-11-24T11:41:46.501Z,12.05
2022-11-24T11:43:56.247Z,12.48
2022-11-24T11:46:09.384Z,12.77
2022-11-24T11:48:36.988Z,12.60
2022-11-24T11:53:47.225Z,12.52
2022-11-24T11:56:08.341Z,11.75
2022-11-24T12:00:20.361Z,11.93
2022-11-24T12:03:01.649Z,11.68
2022-11-24T12:05:42.309Z,11.40
2022-11-24T12:08:03.473Z,12.07
2022-11-24T12:10:27.412Z,11.75
2022-11-24T12:12:54.894Z,11.52
2022-11-24T12:15:10.692Z,11.90
2022-11-24T12:17:25.917Z,11.40
2022-11-24T12:19:50.772Z,11.93
2022-11-24T12:22:23.964Z,10.85
2022-11-24T12:25:19.946Z,10.77
2022-11-24T12:27:54.300Z,10.45
2022-11-24T12:30:19.497Z,11.05
2022-11-24T12:32:31.060Z,14.15
2022-11-24T12:34:53.892Z,9.80
2022-11-24T12:37:21.789Z,9.80
2022-11-24T12:39:49.667Z,9.45
2022-11-24T12:42:23.726Z,10.65
2022-11-24T12:44:44.596Z,9.88
2022-11-24T12:47:25.576Z,10.15
2022-11-24T12:51:42.118Z,10.27
2022-11-24T12:53:48.152Z,9.57
2022-11-24T12:55:51.352Z,10.73
2022-11-24T12:58:18.253Z,10.20
2022-11-24T13:00:40.619Z,10.57
2022-11-24T13:03:19.505Z,9.93
2022-11-24T13:05:39.078Z,9.38
2022-11-24T13:07:49.781Z,10.10
2022-11-24T13:12:15.768Z,9.02
2022-11-24T13:14:32.934Z,10.65
2022-11-24T13:19:34.981Z,10.35
2022-11-24T13:21:40.505Z,9.60
2022-11-24T13:23:42.826Z,9.65
2022-11-24T13:26:15.236Z,10.38
2022-11-24T13:29:05.745Z,8.93
2022-11-24T13:31:22.817Z,10.13
2022-11-24T13:33:33.444Z,9.82
2022-11-24T13:35:35.682Z,10.02
2022-11-24T13:37:37.868Z,9.55
2022-11-24T13:40:00.120Z,9.82
2022-11-24T13:42:02.420Z,9.88
2022-11-24T13:44:13.443Z,9.15
2022-11-24T13:46:57.553Z,9.95
2022-11-24T13:49:02.438Z,9.85
2022-11-24T13:51:22.530Z,9.70
2022-11-24T13:53:36.367Z,10.25
2022-11-24T13:55:41.002Z,9.68
2022-11-24T13:57:46.260Z,9.80
2022-11-24T13:59:48.900Z,10.18
2022-11-24T14:01:58.255Z,10.57
2022-11-24T14:04:34.429Z,8.90
2022-11-24T14:06:52.148Z,10.30
2022-11-24T14:08:55.612Z,9.65
2022-11-24T14:11:00.560Z,9.90
2022-11-24T14:13:27.678Z,9.07
2022-11-24T14:15:34.262Z,10.38
2022-11-24T14:17:37.685Z,10.23
2022-11-24T14:19:40.832Z,10.07
2022-11-24T14:21:44.411Z,10.68
2022-11-24T14:23:54.291Z,9.65
2022-11-24T14:25:56.627Z,10.88
2022-11-24T14:28:00.423Z,9.75
2022-11-24T14:30:16.353Z,9.57
2022-11-24T14:32:18.709Z,10.73
2022-11-24T14:34:23.047Z,10.20
2022-11-24T14:36:25.798Z,10.07
2022-11-24T14:38:28.140Z,9.88
2022-11-24T14:40:40.563Z,10.50
2022-11-24T14:42:50.769Z,10.45
2022-11-24T14:45:03.086Z,9.73
2022-11-24T14:47:07.541Z,10.25
2022-11-24T14:49:10.502Z,9.85
2022-11-24T14:51:21.813Z,10.40
2022-11-24T14:53:26.341Z,9.60
2022-11-24T14:55:31.707Z,10.07
2022-11-24T14:57:36.520Z,10.43
2022-11-24T14:59:39.571Z,10.68
2022-11-24T15:01:42.078Z,10.27
2022-11-24T15:03:44.449Z,11.77
2022-11-24T15:05:58.867Z,11.23
2022-11-24T15:08:03.084Z,9.95
2022-11-24T15:10:19.180Z,11.45
2022-11-24T15:12:30.774Z,10.23
2022-11-24T15:14:44.958Z,10.18
2022-11-24T15:16:47.395Z,12.07
2022-11-24T15:18:58.506Z,11.90
2022-11-24T15:21:01.265Z,9.93
2022-11-24T15:23:25.898Z,11.23
2022-11-24T15:25:31.642Z,10.45
2022-11-24T15:27:34.456Z,10.40
2022-11-24T15:29:36.629Z,11.50
2022-11-24T15:31:46.315Z,13.27
2022-11-24T15:33:51.785Z,10.55
2022-11-24T15:35:54.523Z,13.43
2022-11-24T15:37:56.751Z,10.52
2022-11-24T15:39:59.276Z,12.57
2022-11-24T15:42:01.590Z,10.55
2022-11-24T15:44:04.018Z,11.60
2022-11-24T15:46:08.387Z,12.07
2022-11-24T15:48:16.296Z,11.52
2022-11-24T15:50:21.173Z,12.25
2022-11-24T15:52:23.966Z,11.15
2022-11-24T15:54:27.755Z,10.63
2022-11-24T15:56:41.844Z,11.52
2022-11-24T15:58:44.386Z,10.85
2022-11-24T16:00:46.747Z,14.90
2022-11-24T16:02:50.037Z,11.25
2022-11-24T16:04:52.428Z,11.70
2022-11-24T16:06:54.647Z,11.55
2022-11-24T16:08:58.186Z,11.90
2022-11-24T16:11:00.419Z,10.27
2022-11-24T16:13:02.736Z,11.32
2022-11-24T16:15:05.691Z,11.75
2022-11-24T16:17:07.969Z,13.25
2022-11-24T16:19:10.877Z,11.10
2022-11-24T16:21:13.553Z,12.57
2022-11-24T16:23:15.870Z,12.13
2022-11-24T16:25:18.762Z,12.13
2022-11-24T16:27:22.388Z,11.63
2022-11-24T16:29:24.791Z,11.88
2022-11-24T16:31:27.824Z,11.57
2022-11-24T16:33:30.584Z,11.43
2022-11-24T16:35:33.869Z,11.07
2022-11-24T16:37:36.679Z,11.65
2022-11-24T16:39:39.237Z,12.02
2022-11-24T16:41:41.628Z,11.95
2022-11-24T16:43:43.897Z,11.50
2022-11-24T16:45:46.879Z,11.80
2022-11-24T16:47:49.209Z,12.05
2022-11-24T16:49:51.598Z,11.35
2022-11-24T16:51:54.107Z,13.02
2022-11-24T16:54:01.802Z,10.98
2022-11-24T16:56:04.477Z,12.10
2022-11-24T16:58:07.347Z,11.68
2022-11-24T17:00:10.512Z,11.50
2022-11-24T17:02:13.827Z,11.75
2022-11-24T17:04:18.290Z,11.82
2022-11-24T17:06:21.525Z,12.70
2022-11-24T17:08:23.811Z,16.87
2022-11-24T17:10:26.717Z,13.10
2022-11-24T17:12:30.109Z,12.25
2022-11-24T17:14:33.409Z,12.15
2022-11-24T17:16:38.117Z,11.20
2022-11-24T17:18:41.443Z,12.95
2022-11-24T17:20:43.914Z,11.77
2022-11-24T17:22:46.854Z,13.35
2022-11-24T17:24:49.538Z,13.10
2022-11-24T17:26:52.078Z,13.52
2022-11-24T17:28:54.856Z,12.57
2022-11-24T17:30:57.454Z,10.75
2022-11-24T17:33:00.104Z,11.90
2022-11-24T17:35:03.039Z,11.55
2022-11-24T17:37:05.780Z,11.77
2022-11-24T17:39:09.345Z,12.32
2022-11-24T17:41:12.850Z,12.27
2022-11-24T17:43:15.494Z,11.80
2022-11-24T17:45:19.473Z,11.38
2022-11-24T17:47:22.475Z,11.43
2022-11-24T17:49:28.028Z,11.25
2022-11-24T17:51:31.191Z,11.32
2022-11-24T17:53:37.374Z,10.90
2022-11-24T17:55:41.412Z,11.35
2022-11-24T17:57:44.245Z,11.18
2022-11-24T17:59:48.023Z,12.00
2022-11-24T18:01:50.806Z,10.98
2022-11-24T18:03:54.762Z,11.07
2022-11-24T18:06:11.881Z,12.20
2022-11-24T18:08:14.608Z,12.35
2022-11-24T18:10:17.716Z,12.05
2022-11-24T18:12:20.411Z,10.80
2022-11-24T18:14:23.108Z,10.65
2022-11-24T18:16:28.457Z,11.45
2022-11-24T18:18:34.378Z,12.02
2022-11-24T18:20:39.766Z,11.30
2022-11-24T18:23:04.519Z,12.82
2022-11-24T18:25:05.744Z,11.73
2022-11-24T18:27:08.725Z,11.88
2022-11-24T18:29:13.349Z,10.77
2022-11-24T18:31:18.568Z,11.50
2022-11-24T18:33:21.354Z,11.00
2022-11-24T18:35:24.295Z,11.02
2022-11-24T18:37:27.012Z,10.77
2022-11-24T18:39:30.409Z,10.93
2022-11-24T18:41:33.958Z,11.00
2022-11-24T18:43:38.669Z,10.85
2022-11-24T18:45:41.739Z,11.60
2022-11-24T18:47:44.872Z,12.30
2022-11-24T18:49:47.580Z,11.90
2022-11-24T18:51:50.330Z,11.50
2022-11-24T18:53:58.471Z,12.73
2022-11-24T18:56:04.068Z,11.50
2022-11-24T18:58:06.767Z,11.40
2022-11-24T19:00:10.541Z,11.38
2022-11-24T19:02:13.591Z,11.85
2022-11-24T19:04:16.456Z,10.95
2022-11-24T19:06:34.996Z,12.00
2022-11-24T19:08:38.237Z,11.10
2022-11-24T19:10:41.221Z,11.40
2022-11-24T19:12:45.628Z,12.15
2022-11-24T19:14:48.411Z,12.18
2022-11-24T19:16:50.858Z,11.02
2022-11-24T19:18:57.777Z,11.77
2022-11-24T19:21:00.544Z,11.07
2022-11-24T19:23:04.299Z,11.32
2022-11-24T19:25:07.960Z,10.30
2022-11-24T19:27:10.950Z,12.45
2022-11-24T19:29:13.650Z,11.35
2022-11-24T19:31:18.278Z,11.70
2022-11-24T19:33:22.058Z,11.75
2022-11-24T19:35:24.861Z,11.25
2022-11-24T19:37:30.977Z,12.13
2022-11-24T19:39:33.750Z,12.27
2022-11-24T19:41:39.420Z,12.35
2022-11-24T19:43:43.939Z,11.30
2022-11-24T19:45:46.915Z,11.65
2022-11-24T19:47:49.836Z,11.75
2022-11-24T19:49:52.443Z,12.80
2022-11-24T19:51:56.171Z,10.48
2022-11-24T19:54:00.350Z,11.95
2022-11-24T19:56:12.150Z,11.02
2022-11-24T19:58:14.796Z,11.57
2022-11-24T20:00:18.330Z,11.43
2022-11-24T20:02:21.343Z,13.13
2022-11-24T20:04:24.299Z,12.25
2022-11-24T20:06:31.982Z,12.63
2022-11-24T20:08:36.339Z,11.98
2022-11-24T20:10:42.463Z,10.45
2022-11-24T20:12:45.378Z,12.20
2022-11-24T20:14:50.281Z,12.07
2022-11-24T20:16:53.238Z,12.68
2022-11-24T20:18:58.471Z,12.07
2022-11-24T20:21:09.339Z,11.98
2022-11-24T20:23:14.129Z,12.00
2022-11-24T20:25:16.596Z,11.77
2022-11-24T20:27:20.605Z,11.80
2022-11-24T20:29:24.670Z,13.00
2022-11-24T20:31:32.415Z,10.90
2022-11-24T20:33:38.071Z,13.15
2022-11-24T20:35:41.106Z,10.73
2022-11-24T20:37:45.996Z,11.48
2022-11-24T20:39:50.381Z,11.55
2022-11-24T20:41:54.104Z,11.93
2022-11-24T20:43:59.787Z,11.30
2022-11-24T20:46:04.826Z,11.68
2022-11-24T20:48:09.165Z,11.82
2022-11-24T20:50:12.488Z,12.77
2022-11-24T20:52:15.397Z,11.68
2022-11-24T20:54:18.853Z,12.90
2022-11-24T20:56:23.628Z,11.77
2022-11-24T20:58:26.581Z,11.52
2022-11-24T21:00:31.581Z,12.30
2022-11-24T21:02:34.380Z,12.80
2022-11-24T21:04:37.618Z,12.63
2022-11-24T21:06:41.133Z,12.00
2022-11-24T21:08:43.660Z,11.75
2022-11-24T21:10:53.551Z,10.95
2022-11-24T21:12:56.126Z,12.82
2022-11-24T21:14:58.443Z,12.37
2022-11-24T21:17:01.046Z,13.15
2022-11-24T21:19:09.242Z,12.63
2022-11-24T21:21:12.592Z,12.63
2022-11-24T21:23:15.476Z,12.90
2022-11-24T21:25:17.969Z,12.10
2022-11-24T21:27:20.363Z,11.20
2022-11-24T21:29:25.868Z,12.82
2022-11-24T21:31:28.262Z,11.65
2022-11-24T21:33:30.705Z,11.82
2022-11-24T21:35:36.857Z,11.20
2022-11-24T21:37:39.107Z,12.98
2022-11-24T21:39:44.629Z,13.15
2022-11-24T21:41:47.788Z,14.48
2022-11-24T21:43:51.648Z,11.43
2022-11-24T21:45:53.959Z,12.07
2022-11-24T21:47:56.691Z,12.68
2022-11-24T21:49:58.963Z,11.65
2022-11-24T21:52:01.343Z,12.25
2022-11-24T21:54:03.956Z,11.63
2022-11-24T21:56:09.992Z,11.48
2022-11-24T21:58:12.264Z,10.57
2022-11-24T22:00:15.899Z,12.88
2022-11-24T22:02:18.622Z,10.75
2022-11-24T22:04:20.832Z,10.80
2022-11-24T22:06:23.190Z,12.13
2022-11-24T22:08:27.042Z,11.98
2022-11-24T22:10:29.250Z,12.73
2022-11-24T22:12:31.470Z,11.95
2022-11-24T22:14:37.514Z,12.43
2022-11-24T22:16:42.585Z,12.27
2022-11-24T22:18:45.963Z,13.65
2022-11-24T22:20:55.199Z,11.80
2022-11-24T22:22:57.460Z,12.57
2022-11-24T22:24:59.654Z,11.60
2022-11-24T22:27:03.019Z,12.73
2022-11-24T22:29:06.052Z,11.95
2022-11-24T22:31:11.565Z,12.48
2022-11-24T22:33:14.039Z,12.45
2022-11-24T22:35:16.260Z,12.18
2022-11-24T22:37:18.527Z,12.23
2022-11-24T22:39:21.016Z,13.43
2022-11-24T22:41:23.995Z,11.88
2022-11-24T22:43:26.366Z,12.15
2022-11-24T22:45:28.829Z,13.88
2022-11-24T22:47:31.039Z,12.35
2022-11-24T22:49:33.376Z,12.55
2022-11-24T22:51:39.402Z,16.35
2022-11-24T22:53:42.402Z,13.07
2022-11-24T22:55:44.739Z,12.40
2022-11-24T22:57:48.475Z,12.50
2022-11-24T22:59:50.912Z,12.25
2022-11-24T23:01:53.125Z,12.10
2022-11-24T23:03:55.863Z,11.43
2022-11-24T23:06:02.620Z,12.18
2022-11-24T23:08:05.034Z,11.68
2022-11-24T23:10:07.945Z,11.00
2022-11-24T23:12:10.267Z,13.13
2022-11-24T23:14:15.117Z,13.30
2022-11-24T23:16:18.460Z,12.73
2022-11-24T23:18:20.662Z,12.23
2022-11-24T23:20:22.937Z,12.00
2022-11-24T23:22:25.447Z,9.93
